createdAt,value
2022-10-22T00:00:19.569Z,93.88
2022-10-22T00:01:18.980Z,93.78
2022-10-22T00:02:19.666Z,93.99
2022-10-22T00:03:19.317Z,94.09
2022-10-22T00:04:19.501Z,94.19
2022-10-22T00:05:20.599Z,94.39
2022-10-22T00:06:19.843Z,94.59
2022-10-22T00:07:20.574Z,95.00
2022-10-22T00:08:20.208Z,95.00
2022-10-22T00:09:20.448Z,95.00
2022-10-22T00:10:20.520Z,94.79
2022-10-22T00:11:20.654Z,94.70
2022-10-22T00:12:21.086Z,94.49
2022-10-22T00:13:20.978Z,94.70
2022-10-22T00:14:22.075Z,94.59
2022-10-22T00:15:21.303Z,94.70
2022-10-22T00:16:21.466Z,94.59
2022-10-22T00:17:21.638Z,95.10
2022-10-22T00:18:22.794Z,95.30
2022-10-22T00:19:22.043Z,95.00
2022-10-22T00:20:22.243Z,94.79
2022-10-22T00:21:22.411Z,94.79
2022-10-22T00:22:22.590Z,94.79
2022-10-22T00:23:22.739Z,94.79
2022-10-22T00:24:22.898Z,95.10
2022-10-22T00:25:23.578Z,95.20
2022-10-22T00:26:23.210Z,95.30
2022-10-22T00:27:23.380Z,95.20
2022-10-22T00:28:23.560Z,95.30
2022-10-22T00:29:23.697Z,95.00
2022-10-22T00:30:23.847Z,94.90
2022-10-22T00:31:23.972Z,95.20
2022-10-22T00:32:24.092Z,95.00
2022-10-22T00:33:24.243Z,95.00
2022-10-22T00:34:25.086Z,94.79
2022-10-22T00:35:24.566Z,95.20
2022-10-22T00:36:25.582Z,95.30
2022-10-22T00:37:24.934Z,95.30
2022-10-22T00:38:25.098Z,95.30
2022-10-22T00:39:26.084Z,95.40
2022-10-22T00:40:25.481Z,95.30
2022-10-22T00:41:25.668Z,95.20
2022-10-22T00:42:25.784Z,96.01
2022-10-22T00:43:25.920Z,95.81
2022-10-22T00:44:26.589Z,95.91
2022-10-22T00:45:26.218Z,95.91
2022-10-22T00:46:27.089Z,96.01
2022-10-22T00:47:26.585Z,95.61
2022-10-22T00:48:27.581Z,95.40
2022-10-22T00:49:27.583Z,95.30
2022-10-22T00:50:27.111Z,94.90
2022-10-22T00:51:27.261Z,95.00
2022-10-22T00:52:27.388Z,95.20
2022-10-22T00:53:28.086Z,95.30
2022-10-22T00:54:28.586Z,95.15
2022-10-22T00:55:27.935Z,95.20
2022-10-22T00:56:28.075Z,95.10
2022-10-22T00:57:29.088Z,95.20
2022-10-22T00:58:29.091Z,95.30
2022-10-22T00:59:28.668Z,94.75
2022-10-22T01:00:28.825Z,94.55
2022-10-22T01:01:29.010Z,94.79
2022-10-22T01:02:30.089Z,94.45
2022-10-22T01:03:29.288Z,94.65
2022-10-22T01:04:29.411Z,94.14
2022-10-22T01:05:29.551Z,94.24
2022-10-22T01:06:29.714Z,94.45
2022-10-22T01:07:29.842Z,93.63
2022-10-22T01:08:30.049Z,93.84
2022-10-22T01:09:30.152Z,93.63
2022-10-22T01:10:30.277Z,93.63
2022-10-22T01:11:30.602Z,93.54
2022-10-22T01:12:30.609Z,93.84
2022-10-22T01:13:30.756Z,94.04
2022-10-22T01:14:31.591Z,93.94
2022-10-22T01:15:31.075Z,94.55
2022-10-22T01:16:31.328Z,94.45
2022-10-22T01:17:31.454Z,94.20
2022-10-22T01:18:31.621Z,94.45
2022-10-22T01:19:32.608Z,94.35
2022-10-22T01:20:31.970Z,94.35
2022-10-22T01:21:33.096Z,94.35
2022-10-22T01:22:32.322Z,94.95
2022-10-22T01:23:32.607Z,94.55
2022-10-22T01:24:33.627Z,94.95
2022-10-22T01:25:32.740Z,94.75
2022-10-22T01:26:33.110Z,94.65
2022-10-22T01:27:32.989Z,94.55
2022-10-22T01:28:34.104Z,94.24
2022-10-22T01:29:33.611Z,94.55
2022-10-22T01:30:33.521Z,94.95
2022-10-22T01:31:33.671Z,95.15
2022-10-22T01:32:33.829Z,95.36
2022-10-22T01:33:33.979Z,95.26
2022-10-22T01:34:34.614Z,95.20
2022-10-22T01:36:35.095Z,95.30
2022-10-22T01:37:34.729Z,95.00
2022-10-22T01:38:34.901Z,95.06
2022-10-22T01:39:35.110Z,95.10
2022-10-22T01:40:35.279Z,94.39
2022-10-22T01:41:35.430Z,94.24
2022-10-22T01:42:35.586Z,94.35
2022-10-22T01:43:35.737Z,93.94
2022-10-22T01:45:37.098Z,93.94
2022-10-22T01:46:37.107Z,93.94
2022-10-22T01:47:36.493Z,94.14
2022-10-22T01:48:36.652Z,93.54
2022-10-22T01:49:36.817Z,93.43
2022-10-22T01:50:37.616Z,93.43
2022-10-22T01:51:38.106Z,93.63
2022-10-22T01:52:37.337Z,93.33
2022-10-22T01:53:37.570Z,93.33
2022-10-22T01:54:38.603Z,93.43
2022-10-22T01:55:38.602Z,93.23
2022-10-22T01:57:10.987Z,92.68
2022-10-22T01:57:38.559Z,93.03
2022-10-22T01:58:38.365Z,93.13
2022-10-22T01:59:38.503Z,93.23
2022-10-22T02:00:38.726Z,93.23
2022-10-22T02:01:38.804Z,92.93
2022-10-22T02:02:39.196Z,93.63
2022-10-22T02:03:39.100Z,94.04
2022-10-22T02:04:40.148Z,94.04
2022-10-22T02:05:39.514Z,93.94
2022-10-22T02:06:39.681Z,93.94
2022-10-22T02:07:40.173Z,93.63
2022-10-22T02:08:40.106Z,93.74
2022-10-22T02:09:40.178Z,93.94
2022-10-22T02:10:41.146Z,94.04
2022-10-22T02:11:40.511Z,93.63
2022-10-22T02:12:40.949Z,93.84
2022-10-22T02:13:40.782Z,93.74
2022-10-22T02:14:40.938Z,93.63
2022-10-22T02:15:41.099Z,93.43
2022-10-22T02:16:42.148Z,93.43
2022-10-22T02:17:41.658Z,93.54
2022-10-22T02:18:42.546Z,93.74
2022-10-22T02:19:42.653Z,93.94
2022-10-22T02:20:42.008Z,93.84
2022-10-22T02:21:43.148Z,94.04
2022-10-22T02:22:42.893Z,94.35
2022-10-22T02:23:43.148Z,94.45
2022-10-22T02:24:43.653Z,94.29
2022-10-22T02:25:42.902Z,94.49
2022-10-22T02:26:43.682Z,94.14
2022-10-22T02:27:43.664Z,94.79
2022-10-22T02:28:44.153Z,94.70
2022-10-22T02:29:44.163Z,94.59
2022-10-22T02:30:44.653Z,95.10
2022-10-22T02:31:44.671Z,95.10
2022-10-22T02:32:44.161Z,94.70
2022-10-22T02:33:44.162Z,94.70
2022-10-22T02:34:44.321Z,94.49
2022-10-22T02:35:44.486Z,94.79
2022-10-22T02:36:48.084Z,94.39
2022-10-22T02:37:46.163Z,93.99
2022-10-22T02:38:45.169Z,93.88
2022-10-22T02:39:45.169Z,93.78
2022-10-22T02:40:46.151Z,92.83
2022-10-22T02:41:45.398Z,93.27
2022-10-22T02:42:45.547Z,92.93
2022-10-22T02:43:46.641Z,93.18
2022-10-22T02:44:46.918Z,93.03
2022-10-22T02:45:46.053Z,92.83
2022-10-22T02:46:46.222Z,93.18
2022-10-22T02:47:46.345Z,93.18
2022-10-22T02:48:46.497Z,93.18
2022-10-22T02:49:46.643Z,93.23
2022-10-22T02:50:46.793Z,93.43
2022-10-22T02:51:47.663Z,92.63
2022-10-22T02:52:47.174Z,92.93
2022-10-22T02:53:47.352Z,92.72
2022-10-22T02:54:47.671Z,92.52
2022-10-22T02:55:47.700Z,92.63
2022-10-22T02:56:47.902Z,92.63
2022-10-22T02:57:48.658Z,92.72
2022-10-22T02:58:48.292Z,91.82
2022-10-22T02:59:49.164Z,92.12
2022-10-22T03:00:48.599Z,91.82
2022-10-22T03:01:48.798Z,91.51
2022-10-22T03:02:48.967Z,91.41
2022-10-22T03:03:49.135Z,91.61
2022-10-22T03:04:50.166Z,90.80
2022-10-22T03:05:50.168Z,90.76
2022-10-22T03:06:49.597Z,90.66
2022-10-22T03:07:49.761Z,90.56
2022-10-22T03:08:49.979Z,90.56
2022-10-22T03:09:50.073Z,90.91
2022-10-22T03:10:50.254Z,90.56
2022-10-22T03:11:50.675Z,90.60
2022-10-22T03:12:50.571Z,90.86
2022-10-22T03:13:50.749Z,90.96
2022-10-22T03:14:51.667Z,91.41
2022-10-22T03:15:51.084Z,91.77
2022-10-22T03:16:51.298Z,92.12
2022-10-22T03:17:51.464Z,92.83
2022-10-22T03:18:51.621Z,93.19
2022-10-22T03:19:51.774Z,94.14
2022-10-22T03:20:52.677Z,93.94
2022-10-22T03:21:52.177Z,93.63
2022-10-22T03:22:53.151Z,94.04
2022-10-22T03:23:53.536Z,94.85
2022-10-22T03:24:52.642Z,94.45
2022-10-22T03:25:52.836Z,94.95
2022-10-22T03:26:53.674Z,95.15
2022-10-22T03:27:53.195Z,95.06
2022-10-22T03:28:53.348Z,95.26
2022-10-22T03:29:53.487Z,95.36
2022-10-22T03:30:53.625Z,95.76
2022-10-22T03:31:53.770Z,95.86
2022-10-22T03:32:54.937Z,95.76
2022-10-22T03:33:54.036Z,95.76
2022-10-22T03:34:54.204Z,96.07
2022-10-22T03:35:54.414Z,96.31
2022-10-22T03:36:55.168Z,96.07
2022-10-22T03:37:54.668Z,96.11
2022-10-22T03:38:54.855Z,96.11
2022-10-22T03:39:54.997Z,96.22
2022-10-22T03:40:55.129Z,96.11
2022-10-22T03:41:55.270Z,96.22
2022-10-22T03:42:55.429Z,96.31
2022-10-22T03:43:55.589Z,96.22
2022-10-22T03:44:56.695Z,97.13
2022-10-22T03:45:55.951Z,97.07
2022-10-22T03:46:58.723Z,97.07
2022-10-22T03:47:58.687Z,97.17
2022-10-22T03:48:57.523Z,97.38
2022-10-22T03:49:57.675Z,97.17
2022-10-22T03:50:56.940Z,97.38
2022-10-22T03:51:57.072Z,97.58
2022-10-22T03:52:58.184Z,97.88
2022-10-22T03:53:58.180Z,97.62
2022-10-22T03:54:57.581Z,97.62
2022-10-22T03:55:57.798Z,97.72
2022-10-22T03:56:58.687Z,97.83
2022-10-22T03:57:58.214Z,98.13
2022-10-22T03:58:58.377Z,98.63
2022-10-22T03:59:58.550Z,98.43
2022-10-22T04:00:59.724Z,98.23
2022-10-22T04:01:59.691Z,98.94
2022-10-22T04:02:59.069Z,98.68
2022-10-22T04:03:59.253Z,98.33
2022-10-22T04:04:59.438Z,99.04
2022-10-22T04:06:00.180Z,98.43
2022-10-22T04:06:59.794Z,98.94
2022-10-22T04:07:59.945Z,99.08
2022-10-22T04:09:00.165Z,98.99
2022-10-22T04:10:00.263Z,98.79
2022-10-22T04:11:00.399Z,99.29
2022-10-22T04:12:00.526Z,99.49
2022-10-22T04:13:01.680Z,99.29
2022-10-22T04:14:01.667Z,99.49
2022-10-22T04:15:02.693Z,99.29
2022-10-22T04:16:01.286Z,99.90
2022-10-22T04:17:02.185Z,99.90
2022-10-22T04:18:01.575Z,99.99
2022-10-22T04:19:01.713Z,99.99
2022-10-22T04:20:01.872Z,99.99
2022-10-22T04:21:02.682Z,99.99
2022-10-22T04:22:02.681Z,99.99
2022-10-22T04:23:02.422Z,99.99
2022-10-22T04:24:03.206Z,99.99
2022-10-22T04:25:02.744Z,99.99
2022-10-22T04:26:02.924Z,99.99
2022-10-22T04:27:03.070Z,99.99
2022-10-22T04:28:03.701Z,99.99
2022-10-22T04:29:04.184Z,99.99
2022-10-22T04:30:03.671Z,99.99
2022-10-22T04:31:04.202Z,99.99
2022-10-22T04:32:04.200Z,99.99
2022-10-22T04:33:04.099Z,99.99
2022-10-22T04:34:04.215Z,99.99
2022-10-22T04:35:04.368Z,99.99
2022-10-22T04:36:04.516Z,99.99
2022-10-22T04:37:04.684Z,99.99
2022-10-22T04:38:04.816Z,99.99
2022-10-22T04:39:04.937Z,99.99
2022-10-22T04:40:05.689Z,99.99
2022-10-22T04:41:05.238Z,99.99
2022-10-22T04:42:05.697Z,99.99
2022-10-22T04:43:05.598Z,99.99
2022-10-22T04:44:05.767Z,99.99
2022-10-22T04:45:05.975Z,99.99
2022-10-22T04:46:06.151Z,99.99
2022-10-22T04:47:06.324Z,99.99
2022-10-22T04:48:06.515Z,99.99
2022-10-22T04:49:07.228Z,99.99
2022-10-22T04:50:07.704Z,99.99
2022-10-22T04:51:07.085Z,99.99
2022-10-22T04:52:07.265Z,99.99
2022-10-22T04:53:08.216Z,99.99
2022-10-22T04:54:07.598Z,99.99
2022-10-22T04:55:07.724Z,99.99
2022-10-22T04:56:08.691Z,99.99
2022-10-22T04:57:08.221Z,99.99
2022-10-22T04:58:08.219Z,99.99
2022-10-22T04:59:08.359Z,99.99
2022-10-22T05:00:08.528Z,99.99
2022-10-22T05:01:09.248Z,99.99
2022-10-22T05:02:08.904Z,99.99
2022-10-22T05:03:09.035Z,99.99
2022-10-22T05:04:09.694Z,99.99
2022-10-22T05:05:09.322Z,99.99
2022-10-22T05:06:09.487Z,99.99
2022-10-22T05:07:10.196Z,99.99
2022-10-22T05:08:10.205Z,99.99
2022-10-22T05:09:10.801Z,99.99
2022-10-22T05:10:10.688Z,99.99
2022-10-22T05:11:11.317Z,99.99
2022-10-22T05:12:10.592Z,99.99
2022-10-22T05:13:10.754Z,99.99
2022-10-22T05:14:11.714Z,99.99
2022-10-22T05:15:11.703Z,99.99
2022-10-22T05:16:11.319Z,99.99
2022-10-22T05:17:11.722Z,99.99
2022-10-22T05:18:12.201Z,99.99
2022-10-22T05:19:11.833Z,99.99
2022-10-22T05:20:11.980Z,99.99
2022-10-22T05:21:12.116Z,99.99
2022-10-22T05:22:12.292Z,99.99
2022-10-22T05:23:13.218Z,99.99
2022-10-22T05:24:12.596Z,99.99
2022-10-22T05:25:13.701Z,99.99
2022-10-22T05:26:12.960Z,99.99
2022-10-22T05:27:13.160Z,99.99
2022-10-22T05:28:14.211Z,99.99
2022-10-22T05:29:13.455Z,99.99
2022-10-22T05:30:13.609Z,99.99
2022-10-22T05:31:14.703Z,99.99
2022-10-22T05:32:14.730Z,99.99
2022-10-22T05:33:14.103Z,99.99
2022-10-22T05:34:14.309Z,99.99
2022-10-22T05:35:14.491Z,99.99
2022-10-22T05:36:15.636Z,99.99
2022-10-22T05:37:14.873Z,99.99
2022-10-22T05:38:15.038Z,99.99
2022-10-22T05:39:15.715Z,99.99
2022-10-22T05:40:26.592Z,99.99
2022-10-22T05:41:17.576Z,99.99
2022-10-22T05:42:15.804Z,99.99
2022-10-22T05:43:15.942Z,99.99
2022-10-22T05:44:16.061Z,99.99
2022-10-22T05:45:16.217Z,99.99
2022-10-22T05:46:19.957Z,99.99
2022-10-22T05:47:19.205Z,99.99
2022-10-22T05:48:16.768Z,99.99
2022-10-22T05:49:17.225Z,99.99
2022-10-22T05:50:17.112Z,99.99
2022-10-22T05:51:17.252Z,99.99
2022-10-22T05:52:17.387Z,99.99
2022-10-22T05:53:18.214Z,99.99
2022-10-22T05:54:17.700Z,99.99
2022-10-22T05:55:19.747Z,99.99
2022-10-22T05:56:18.716Z,99.99
2022-10-22T05:57:18.236Z,99.99
2022-10-22T05:58:18.367Z,99.99
2022-10-22T05:59:18.723Z,99.99
2022-10-22T06:00:18.718Z,99.99
2022-10-22T06:01:19.239Z,99.99
2022-10-22T06:02:19.744Z,99.99
2022-10-22T06:03:19.228Z,99.99
2022-10-22T06:04:19.358Z,99.99
2022-10-22T06:05:19.558Z,99.99
2022-10-22T06:06:20.242Z,99.99
2022-10-22T06:07:19.840Z,99.99
2022-10-22T06:08:20.735Z,99.99
2022-10-22T06:09:20.117Z,99.99
2022-10-22T06:10:20.265Z,99.99
2022-10-22T06:11:21.215Z,99.99
2022-10-22T06:12:21.219Z,99.99
2022-10-22T06:13:20.720Z,99.99
2022-10-22T06:14:21.720Z,99.99
2022-10-22T06:15:21.232Z,99.99
2022-10-22T06:16:21.225Z,99.99
2022-10-22T06:17:21.727Z,99.99
2022-10-22T06:18:21.486Z,99.99
2022-10-22T06:19:22.615Z,99.99
2022-10-22T06:20:21.847Z,99.99
2022-10-22T06:21:22.721Z,99.99
2022-10-22T06:22:22.734Z,99.99
2022-10-22T06:23:23.227Z,99.99
2022-10-22T06:24:22.563Z,99.91
2022-10-22T06:25:23.216Z,99.86
2022-10-22T06:26:23.229Z,99.99
2022-10-22T06:27:22.993Z,99.91
2022-10-22T06:29:23.321Z,99.80
2022-10-22T06:30:23.580Z,99.99
2022-10-22T06:31:24.720Z,99.40
2022-10-22T06:32:23.943Z,99.40
2022-10-22T06:33:24.724Z,99.40
2022-10-22T06:34:24.209Z,99.40
2022-10-22T06:35:24.355Z,99.70
2022-10-22T06:36:25.237Z,99.91
2022-10-22T06:37:24.601Z,99.50
2022-10-22T06:38:24.720Z,99.19
2022-10-22T06:39:25.859Z,99.30
2022-10-22T06:40:25.723Z,99.19
2022-10-22T06:41:28.570Z,99.10
2022-10-22T06:42:26.230Z,98.69
2022-10-22T06:43:26.229Z,98.90
2022-10-22T06:44:26.222Z,98.79
2022-10-22T06:45:25.820Z,98.39
2022-10-22T06:46:26.235Z,98.59
2022-10-22T06:47:26.750Z,98.69
2022-10-22T06:48:26.234Z,98.59
2022-10-22T06:49:26.405Z,98.79
2022-10-22T06:50:26.550Z,97.83
2022-10-22T06:51:27.223Z,98.49
2022-10-22T06:52:27.730Z,97.94
2022-10-22T06:53:27.736Z,98.08
2022-10-22T06:54:27.241Z,97.94
2022-10-22T06:55:27.407Z,97.94
2022-10-22T06:56:27.568Z,97.67
2022-10-22T06:57:27.698Z,97.83
2022-10-22T06:58:28.729Z,97.63
2022-10-22T06:59:27.955Z,97.67
2022-10-22T07:00:29.127Z,97.43
2022-10-22T07:01:28.341Z,97.18
2022-10-22T07:02:28.506Z,95.82
2022-10-22T07:03:28.653Z,94.27
2022-10-22T07:04:28.843Z,91.66
2022-10-22T07:05:28.999Z,88.95
2022-10-22T07:06:29.191Z,86.30
2022-10-22T07:07:29.361Z,84.71
2022-10-22T07:08:30.239Z,83.47
2022-10-22T07:09:29.629Z,82.06
2022-10-22T07:10:30.693Z,81.68
2022-10-22T07:11:30.982Z,80.88
2022-10-22T07:12:30.103Z,80.83
2022-10-22T07:13:30.305Z,80.27
2022-10-22T07:14:31.233Z,80.37
2022-10-22T07:15:30.631Z,79.33
2022-10-22T07:16:32.480Z,80.27
2022-10-22T07:17:30.939Z,79.77
2022-10-22T07:18:31.128Z,80.81
2022-10-22T07:19:31.352Z,80.27
2022-10-22T07:20:31.514Z,79.43
2022-10-22T07:21:32.238Z,78.59
2022-10-22T07:22:31.850Z,78.97
2022-10-22T07:23:31.966Z,80.37
2022-10-22T07:24:32.120Z,78.69
2022-10-22T07:25:32.226Z,77.89
2022-10-22T07:36:29.626Z,74.73
2022-10-22T07:37:29.633Z,74.84
2022-10-22T07:38:31.746Z,74.50
2022-10-22T07:39:31.062Z,72.33
2022-10-22T07:40:31.209Z,71.49
2022-10-22T07:41:31.765Z,70.72
2022-10-22T07:47:40.323Z,73.47
2022-10-22T07:48:40.179Z,74.73
2022-10-22T07:49:40.285Z,73.13
2022-10-22T07:50:41.149Z,73.80
2022-10-22T07:51:41.772Z,72.56
2022-10-22T07:52:43.546Z,72.33
2022-10-22T07:53:42.239Z,71.42
2022-10-22T07:54:42.734Z,71.19
2022-10-22T07:55:43.367Z,70.69
2022-10-22T07:56:42.581Z,70.42
2022-10-22T07:57:43.222Z,69.62
2022-10-22T08:02:39.174Z,67.57
2022-10-22T08:03:38.971Z,67.73
2022-10-22T08:04:39.107Z,67.93
2022-10-22T08:05:39.260Z,67.83
2022-10-22T08:06:39.422Z,66.73
2022-10-22T08:07:39.602Z,67.00
2022-10-22T08:08:41.598Z,66.70
2022-10-22T08:09:41.002Z,66.37
2022-10-22T08:10:41.244Z,65.91
2022-10-22T08:11:41.378Z,64.94
2022-10-22T08:12:42.414Z,66.66
2022-10-22T08:13:45.400Z,67.26
2022-10-22T08:14:43.524Z,67.03
2022-10-22T08:15:42.188Z,67.63
2022-10-22T08:16:43.020Z,68.79
2022-10-22T08:17:42.840Z,67.76
2022-10-22T08:18:42.665Z,66.73
2022-10-22T08:19:42.797Z,66.30
2022-10-22T08:20:43.044Z,65.24
2022-10-22T08:21:44.036Z,64.01
2022-10-22T08:22:43.272Z,63.49
2022-10-22T08:23:43.465Z,62.42
2022-10-22T08:24:44.619Z,64.61
2022-10-22T08:25:43.771Z,65.97
2022-10-22T08:26:44.521Z,68.02
2022-10-22T08:27:45.023Z,68.99
2022-10-22T08:28:45.025Z,70.69
2022-10-22T08:29:45.522Z,70.39
2022-10-22T08:30:45.060Z,70.43
2022-10-22T08:31:44.849Z,68.13
2022-10-22T08:32:45.527Z,69.59
2022-10-22T08:33:46.030Z,68.46
2022-10-22T08:34:45.289Z,68.52
2022-10-22T08:35:45.564Z,68.29
2022-10-22T08:36:46.546Z,67.99
2022-10-22T08:37:45.785Z,66.89
2022-10-22T08:38:46.531Z,66.73
2022-10-22T08:39:46.195Z,68.26
2022-10-22T08:40:46.549Z,68.66
2022-10-22T08:41:47.046Z,70.66
2022-10-22T08:42:46.695Z,69.59
2022-10-22T08:43:46.883Z,71.50
2022-10-22T08:44:47.044Z,73.77
2022-10-22T08:45:47.294Z,75.35
2022-10-22T08:46:47.543Z,76.87
2022-10-22T08:47:48.538Z,78.96
2022-10-22T08:48:47.791Z,80.36
2022-10-22T08:49:48.534Z,81.45
2022-10-22T08:50:49.043Z,81.68
2022-10-22T08:51:48.308Z,82.29
2022-10-22T08:52:48.484Z,81.89
2022-10-22T08:53:48.605Z,83.30
2022-10-22T08:54:48.743Z,83.44
2022-10-22T08:55:48.921Z,83.14
2022-10-22T08:56:50.037Z,84.05
2022-10-22T08:57:52.150Z,83.74
2022-10-22T08:58:49.406Z,85.05
2022-10-22T08:59:49.547Z,84.05
2022-10-22T09:00:49.697Z,83.84
2022-10-22T09:01:49.872Z,83.95
2022-10-22T09:02:50.049Z,83.44
2022-10-22T09:03:50.238Z,84.25
2022-10-22T09:16:00.166Z,84.95
2022-10-22T09:17:00.285Z,84.01
2022-10-22T09:18:01.228Z,83.91
2022-10-22T09:19:00.713Z,83.00
2022-10-22T09:20:02.063Z,83.26
2022-10-22T09:21:02.308Z,83.46
2022-10-22T09:22:02.415Z,82.62
2022-10-22T09:23:02.565Z,81.41
2022-10-22T09:24:02.695Z,81.91
2022-10-22T09:25:02.840Z,81.65
2022-10-22T09:26:03.027Z,81.45
2022-10-22T09:27:03.178Z,81.91
2022-10-22T09:28:03.324Z,82.11
2022-10-22T09:29:03.482Z,81.91
2022-10-22T09:30:03.660Z,81.10
2022-10-22T09:31:03.922Z,82.05
2022-10-22T09:32:04.863Z,81.24
2022-10-22T09:33:04.860Z,82.25
2022-10-22T09:34:04.239Z,83.36
2022-10-22T09:35:04.396Z,82.39
2022-10-22T09:36:04.602Z,83.30
2022-10-22T09:37:05.402Z,82.39
2022-10-22T09:38:05.855Z,83.74
2022-10-22T09:39:05.910Z,83.84
2022-10-22T09:40:05.301Z,83.95
2022-10-22T09:41:05.875Z,84.49
2022-10-22T09:42:05.656Z,84.63
2022-10-22T09:43:05.824Z,85.14
2022-10-22T09:44:05.973Z,85.24
2022-10-22T09:45:06.183Z,85.28
2022-10-22T09:46:06.346Z,85.58
2022-10-22T09:47:06.519Z,85.68
2022-10-22T09:48:06.685Z,86.59
2022-10-22T09:49:06.822Z,86.49
2022-10-22T09:50:07.862Z,86.49
2022-10-22T09:51:07.151Z,86.08
2022-10-22T09:52:07.313Z,86.69
2022-10-22T09:53:08.364Z,86.29
2022-10-22T09:54:08.365Z,87.19
2022-10-22T09:55:07.754Z,87.24
2022-10-22T09:56:08.909Z,87.95
2022-10-22T09:57:08.866Z,87.64
2022-10-22T09:58:08.886Z,88.15
2022-10-22T09:59:08.876Z,88.70
2022-10-22T10:00:08.614Z,89.20
2022-10-22T10:01:08.793Z,89.70
2022-10-22T10:02:19.484Z,90.31
2022-10-22T10:03:10.917Z,90.62
2022-10-22T10:04:10.126Z,90.72
2022-10-22T10:05:10.565Z,91.47
2022-10-22T10:06:09.669Z,91.57
2022-10-22T10:07:09.815Z,91.97
2022-10-22T10:08:10.873Z,92.18
2022-10-22T10:09:10.106Z,92.18
2022-10-22T10:10:10.395Z,92.52
2022-10-22T10:11:10.386Z,92.93
2022-10-22T10:12:11.514Z,94.04
2022-10-22T10:13:10.785Z,94.35
2022-10-22T10:14:10.918Z,94.20
2022-10-22T10:15:11.080Z,93.70
2022-10-22T10:16:11.267Z,94.91
2022-10-22T10:17:11.447Z,94.91
2022-10-22T10:18:12.380Z,94.40
2022-10-22T10:19:11.771Z,94.40
2022-10-22T10:20:12.878Z,92.64
2022-10-22T10:21:12.205Z,93.24
2022-10-22T10:22:12.886Z,93.65
2022-10-22T10:23:12.561Z,93.55
2022-10-22T10:24:12.708Z,93.40
2022-10-22T10:25:13.380Z,92.80
2022-10-22T10:26:13.389Z,92.90
2022-10-22T10:27:13.156Z,92.49
2022-10-22T10:28:13.392Z,92.49
2022-10-22T10:29:13.519Z,92.55
2022-10-22T10:30:13.681Z,92.25
2022-10-22T10:31:13.893Z,90.27
2022-10-22T10:32:14.024Z,90.37
2022-10-22T10:33:14.385Z,91.69
2022-10-22T10:34:14.372Z,90.78
2022-10-22T10:35:14.491Z,90.88
2022-10-22T10:36:14.645Z,89.87
2022-10-22T10:37:14.801Z,89.70
2022-10-22T10:38:14.948Z,90.31
2022-10-22T10:39:15.076Z,90.47
2022-10-22T10:40:15.219Z,91.18
2022-10-22T10:41:15.906Z,91.78
2022-10-22T10:42:15.533Z,90.58
2022-10-22T10:43:15.705Z,90.47
2022-10-22T10:44:16.383Z,89.16
2022-10-22T10:45:15.993Z,89.50
2022-10-22T10:47:16.354Z,90.31
2022-10-22T10:48:16.501Z,89.81
2022-10-22T10:49:16.632Z,89.70
2022-10-22T10:50:16.800Z,89.34
2022-10-22T10:51:16.952Z,89.14
2022-10-22T10:52:20.549Z,90.21
2022-10-22T10:53:17.299Z,89.85
2022-10-22T10:54:17.472Z,89.54
2022-10-22T10:55:18.385Z,89.95
2022-10-22T10:56:17.761Z,90.36
2022-10-22T10:57:17.928Z,90.41
2022-10-22T10:58:18.886Z,90.11
2022-10-22T10:59:18.405Z,89.91
2022-10-22T11:00:18.431Z,89.30
2022-10-22T11:01:18.637Z,88.49
2022-10-22T11:02:19.389Z,88.79
2022-10-22T11:03:19.040Z,88.94
2022-10-22T11:04:19.212Z,88.64
2022-10-22T11:05:19.384Z,88.23
2022-10-22T11:06:23.051Z,88.94
2022-10-22T11:07:34.377Z,88.74
2022-10-22T11:08:22.888Z,88.23
2022-10-22T11:09:20.296Z,87.77
2022-10-22T11:10:21.390Z,87.77
2022-10-22T11:11:21.416Z,88.43
2022-10-22T11:12:21.391Z,88.53
2022-10-22T11:13:21.026Z,88.53
2022-10-22T11:14:21.209Z,88.94
2022-10-22T11:15:21.406Z,87.93
2022-10-22T11:16:21.566Z,88.13
2022-10-22T11:17:22.393Z,88.13
2022-10-22T11:18:21.902Z,87.42
2022-10-22T11:19:23.182Z,87.62
2022-10-22T11:20:24.202Z,88.13
2022-10-22T11:21:57.819Z,87.73
2022-10-22T11:22:26.629Z,88.13
2022-10-22T11:23:24.140Z,86.71
2022-10-22T11:24:23.440Z,86.91
2022-10-22T11:25:23.926Z,86.82
2022-10-22T11:26:23.432Z,86.51
2022-10-22T11:27:23.606Z,86.51
2022-10-22T11:28:24.429Z,87.28
2022-10-22T11:29:23.944Z,86.77
2022-10-22T11:30:24.928Z,86.77
2022-10-22T11:31:24.971Z,86.67
2022-10-22T11:32:24.942Z,86.87
2022-10-22T11:33:24.725Z,86.47
2022-10-22T11:34:39.385Z,86.27
2022-10-22T11:35:27.029Z,86.87
2022-10-22T11:36:25.313Z,86.37
2022-10-22T11:37:25.383Z,86.87
2022-10-22T11:38:25.548Z,86.61
2022-10-22T11:39:26.450Z,86.61
2022-10-22T11:40:25.949Z,86.61
2022-10-22T11:41:26.143Z,86.82
2022-10-22T11:42:26.316Z,86.82
2022-10-22T11:43:26.951Z,86.51
2022-10-22T11:44:27.433Z,86.77
2022-10-22T11:45:26.950Z,86.77
2022-10-22T11:46:27.132Z,86.77
2022-10-22T11:47:27.294Z,86.67
2022-10-22T11:48:27.451Z,86.63
2022-10-22T11:49:27.591Z,85.93
2022-10-22T11:50:27.740Z,85.31
2022-10-22T11:52:04.312Z,85.17
2022-10-22T11:52:28.034Z,85.17
2022-10-22T11:53:28.964Z,85.17
2022-10-22T11:54:28.360Z,84.27
2022-10-22T11:55:29.477Z,84.97
2022-10-22T11:56:29.465Z,85.08
2022-10-22T11:57:29.005Z,84.47
2022-10-22T11:58:29.963Z,84.57
2022-10-22T11:59:29.968Z,85.34
2022-10-22T12:00:29.451Z,84.77
2022-10-22T12:01:29.690Z,84.47
2022-10-22T12:02:29.782Z,83.96
2022-10-22T12:03:30.470Z,84.87
2022-10-22T12:04:30.979Z,85.17
2022-10-22T12:05:30.969Z,85.48
2022-10-22T12:06:31.467Z,84.47
2022-10-22T12:07:30.742Z,84.37
2022-10-22T12:08:31.572Z,84.77
2022-10-22T12:09:31.086Z,84.67
2022-10-22T12:10:31.973Z,84.57
2022-10-22T12:11:31.470Z,84.77
2022-10-22T12:12:31.655Z,84.63
2022-10-22T12:13:31.799Z,83.72
2022-10-22T12:14:31.951Z,84.47
2022-10-22T12:15:32.982Z,84.17
2022-10-22T12:16:50.905Z,83.72
2022-10-22T12:17:34.498Z,84.12
2022-10-22T12:18:32.635Z,83.26
2022-10-22T12:19:32.788Z,83.22
2022-10-22T12:20:32.978Z,83.62
2022-10-22T12:21:33.982Z,82.71
2022-10-22T12:22:33.415Z,82.21
2022-10-22T12:23:34.476Z,82.04
2022-10-22T12:24:33.767Z,82.65
2022-10-22T12:25:35.878Z,83.56
2022-10-22T12:26:35.192Z,83.36
2022-10-22T12:27:34.373Z,83.26
2022-10-22T12:28:35.470Z,83.66
2022-10-22T12:29:34.736Z,83.36
2022-10-22T12:30:34.922Z,82.85
2022-10-22T12:31:35.978Z,83.46
2022-10-22T12:32:35.255Z,83.36
2022-10-22T12:33:35.394Z,83.26
2022-10-22T12:34:36.472Z,82.79
2022-10-22T12:35:35.991Z,83.15
2022-10-22T12:36:36.509Z,83.26
2022-10-22T12:37:36.046Z,83.56
2022-10-22T12:38:36.985Z,82.79
2022-10-22T12:39:36.391Z,82.49
2022-10-22T12:40:37.480Z,83.60
2022-10-22T12:41:36.749Z,83.60
2022-10-22T12:42:37.485Z,83.80
2022-10-22T12:43:38.005Z,83.46
2022-10-22T12:44:37.282Z,83.36
2022-10-22T12:45:37.426Z,82.14
2022-10-22T12:46:37.990Z,82.85
2022-10-22T12:47:37.887Z,82.45
2022-10-22T12:48:37.902Z,82.69
2022-10-22T12:49:38.066Z,82.45
2022-10-22T12:50:39.006Z,83.22
2022-10-22T12:51:38.990Z,82.61
2022-10-22T12:52:38.810Z,81.96
2022-10-22T12:53:38.737Z,81.50
2022-10-22T12:54:38.899Z,81.20
2022-10-22T12:55:39.032Z,82.01
2022-10-22T12:56:39.188Z,81.90
2022-10-22T12:57:39.348Z,82.21
2022-10-22T12:58:39.484Z,82.31
2022-10-22T12:59:39.699Z,82.41
2022-10-22T13:00:40.041Z,82.21
2022-10-22T13:01:40.513Z,82.51
2022-10-22T13:02:40.278Z,82.51
2022-10-22T13:03:40.984Z,82.41
2022-10-22T13:04:40.995Z,81.50
2022-10-22T13:05:40.648Z,82.21
2022-10-22T13:06:40.798Z,82.01
2022-10-22T13:07:40.950Z,81.05
2022-10-22T13:08:41.164Z,81.16
2022-10-22T13:09:41.229Z,81.56
2022-10-22T13:10:41.988Z,80.76
2022-10-22T13:11:41.614Z,81.26
2022-10-22T13:12:42.044Z,81.56
2022-10-22T13:13:41.939Z,81.80
2022-10-22T13:14:42.093Z,81.30
2022-10-22T13:15:43.000Z,81.30
2022-10-22T13:16:42.991Z,81.87
2022-10-22T13:17:42.957Z,81.50
2022-10-22T13:18:42.859Z,81.70
2022-10-22T13:19:43.985Z,82.51
2022-10-22T13:20:45.001Z,81.80
2022-10-22T13:21:43.361Z,81.74
2022-10-22T13:22:43.511Z,82.35
2022-10-22T13:23:44.498Z,82.14
2022-10-22T13:24:44.531Z,82.24
2022-10-22T13:25:44.989Z,83.15
2022-10-22T13:26:44.505Z,83.36
2022-10-22T13:27:44.994Z,82.49
2022-10-22T13:28:44.628Z,82.69